createdAt,value
2023-03-29T00:02:15.079Z,0.6
2023-03-29T00:05:15.085Z,1.1
2023-03-29T00:08:14.982Z,0.9
2023-03-29T00:11:14.966Z,0.65
2023-03-29T00:14:14.914Z,0.45
2023-03-29T00:17:14.947Z,0.8
2023-03-29T00:20:14.835Z,0.5
2023-03-29T00:23:15.046Z,0.35
2023-03-29T00:26:14.964Z,0.85
2023-03-29T00:29:14.969Z,0.6
2023-03-29T00:32:15.051Z,0.6
2023-03-29T00:35:15.056Z,0.5
2023-03-29T00:38:14.876Z,0.75
2023-03-29T00:41:14.834Z,0.65
2023-03-29T00:44:14.922Z,0.3
2023-03-29T00:47:14.967Z,0.4
2023-03-29T00:50:15.043Z,0.2
2023-03-29T00:53:14.921Z,0.2
2023-03-29T00:56:14.944Z,0.15
2023-03-29T00:59:15.094Z,0.15
2023-03-29T01:02:15.159Z,0.4
2023-03-29T01:05:15.058Z,0.5
2023-03-29T01:08:14.890Z,0.8
2023-03-29T01:11:15.067Z,0.45
2023-03-29T01:14:14.902Z,1.05
2023-03-29T01:17:15.044Z,1.25
2023-03-29T01:20:14.952Z,1.25
2023-03-29T01:23:15.278Z,1.2
2023-03-29T01:26:15.003Z,0.3
2023-03-29T01:29:15.058Z,0.25
2023-03-29T01:32:14.919Z,0.55
2023-03-29T01:35:15.034Z,0.75
2023-03-29T01:38:15.097Z,0.7
2023-03-29T01:41:15.057Z,0.7
2023-03-29T01:44:14.945Z,0.5
2023-03-29T01:47:15.037Z,1.05
2023-03-29T01:50:15.029Z,1.25
2023-03-29T01:53:15.013Z,0.8
2023-03-29T01:56:14.909Z,0.45
2023-03-29T01:59:14.950Z,0.75
2023-03-29T02:02:15.109Z,1
2023-03-29T02:05:15.080Z,1.05
2023-03-29T02:08:14.924Z,0.4
2023-03-29T02:11:15.001Z,0.55
2023-03-29T02:14:15.013Z,1.05
2023-03-29T02:17:15.047Z,2.25
2023-03-29T02:20:15.059Z,0.95
2023-03-29T02:23:15.122Z,1.65
2023-03-29T02:26:14.977Z,1.65
2023-03-29T02:29:15.258Z,1.45
2023-03-29T02:32:14.953Z,0.85
2023-03-29T02:35:15.034Z,1.55
2023-03-29T02:38:14.996Z,1.85
2023-03-29T02:41:15.084Z,2.4
2023-03-29T02:44:15.084Z,2
2023-03-29T02:47:15.159Z,1.65
2023-03-29T02:50:14.995Z,2.15
2023-03-29T02:53:15.080Z,2.7
2023-03-29T02:56:15.120Z,2
2023-03-29T02:59:15.417Z,2.45
2023-03-29T03:02:15.211Z,2.5
2023-03-29T03:05:14.986Z,2.7
2023-03-29T03:08:15.135Z,2.65
2023-03-29T03:11:15.238Z,2.65
2023-03-29T03:14:15.046Z,2.35
2023-03-29T03:17:15.145Z,2.55
2023-03-29T03:20:15.117Z,2.05
2023-03-29T03:23:15.155Z,2.9
2023-03-29T03:26:15.053Z,2.15
2023-03-29T03:29:15.149Z,2.45
2023-03-29T03:32:15.085Z,1.85
2023-03-29T03:35:15.049Z,2.8
2023-03-29T03:38:15.049Z,2.6
2023-03-29T03:41:15.126Z,2
2023-03-29T03:44:15.112Z,2.1
2023-03-29T03:47:15.142Z,1.8
2023-03-29T03:50:15.090Z,2.45
2023-03-29T03:53:15.251Z,2.1
2023-03-29T03:56:15.124Z,2.1
2023-03-29T03:59:15.216Z,2.6
2023-03-29T04:02:15.156Z,2.3
2023-03-29T04:05:15.197Z,2.05
2023-03-29T04:08:15.176Z,1.65
2023-03-29T04:11:15.152Z,3.05
2023-03-29T04:14:15.102Z,1.8
2023-03-29T04:17:15.186Z,2.15
2023-03-29T04:20:15.083Z,1.5
2023-03-29T04:23:15.218Z,1.65
2023-03-29T04:26:15.173Z,2.1
2023-03-29T04:29:15.268Z,1.4
2023-03-29T04:32:15.210Z,1.65
2023-03-29T04:35:15.138Z,2.15
2023-03-29T04:38:15.289Z,2.15
2023-03-29T04:41:15.102Z,2.05
2023-03-29T04:44:15.088Z,1.8
2023-03-29T04:47:15.046Z,1.45
2023-03-29T04:50:15.178Z,1.95
2023-03-29T04:53:15.139Z,1.85
2023-03-29T04:56:15.043Z,1.85
2023-03-29T04:59:15.160Z,2.2
2023-03-29T05:02:15.374Z,2
2023-03-29T05:05:15.685Z,1.75
2023-03-29T05:08:15.036Z,1.5
2023-03-29T05:11:15.244Z,1.25
2023-03-29T05:14:22.078Z,1.65
2023-03-29T05:17:22.301Z,1.5
2023-03-29T05:20:15.173Z,1.75
2023-03-29T05:23:15.187Z,1.35
2023-03-29T05:26:15.125Z,1.8
2023-03-29T05:29:15.036Z,1.2
2023-03-29T05:32:15.241Z,1.55
2023-03-29T05:35:15.039Z,2
2023-03-29T05:38:15.116Z,1.6
2023-03-29T05:41:15.197Z,1.85
2023-03-29T05:44:15.231Z,1.65
2023-03-29T05:47:15.040Z,1.45
2023-03-29T05:50:15.249Z,1.4
2023-03-29T05:53:15.187Z,1.55
2023-03-29T05:56:15.154Z,1.5
2023-03-29T05:59:15.132Z,1.2
2023-03-29T06:02:15.244Z,1.8
2023-03-29T06:05:15.190Z,1.6
2023-03-29T06:08:15.120Z,1.75
2023-03-29T06:11:15.178Z,1.2
2023-03-29T06:14:15.169Z,1.3
2023-03-29T06:17:15.316Z,1.1
2023-03-29T06:20:15.135Z,1.35
2023-03-29T06:23:15.304Z,1.15
2023-03-29T06:26:15.193Z,1.15
2023-03-29T06:29:15.329Z,1.15
2023-03-29T06:32:15.247Z,1.5
2023-03-29T06:35:15.110Z,0.9
2023-03-29T06:38:15.321Z,0.65
2023-03-29T06:41:15.635Z,0.65
2023-03-29T06:44:15.254Z,0.45
2023-03-29T06:47:15.262Z,0.85
2023-03-29T06:50:15.174Z,0.65
2023-03-29T06:53:15.216Z,0.7
2023-03-29T06:56:15.209Z,0.7
2023-03-29T06:59:15.218Z,0.5
2023-03-29T07:02:15.500Z,0.95
2023-03-29T07:05:15.297Z,0.75
2023-03-29T07:08:15.434Z,1.4
2023-03-29T07:11:15.259Z,1.05
2023-03-29T07:14:15.295Z,0.2
2023-03-29T07:17:15.233Z,0.3
2023-03-29T07:20:15.251Z,0.3
2023-03-29T07:23:15.166Z,0.55
2023-03-29T07:26:28.248Z,0.45
2023-03-29T07:29:15.304Z,0.35
2023-03-29T07:32:15.318Z,0.7
2023-03-29T07:35:15.239Z,0.6
2023-03-29T07:38:15.296Z,0.6
2023-03-29T07:41:15.373Z,0.8
2023-03-29T07:44:15.233Z,1.3
2023-03-29T07:47:15.447Z,0.45
2023-03-29T07:50:15.240Z,0.35
2023-03-29T07:53:15.232Z,0.9
2023-03-29T07:56:15.324Z,0.95
2023-03-29T07:59:15.211Z,0.55
2023-03-29T08:02:15.279Z,1.15
2023-03-29T08:05:17.567Z,1
2023-03-29T08:08:15.469Z,1.9
2023-03-29T08:11:16.357Z,1.5
2023-03-29T08:14:15.379Z,1.05
2023-03-29T08:17:15.226Z,1.3
2023-03-29T08:20:15.222Z,1.55
2023-03-29T08:23:15.294Z,1.25
2023-03-29T08:26:15.296Z,2.15
2023-03-29T08:29:15.269Z,1.4
2023-03-29T08:32:15.429Z,1.45
2023-03-29T08:35:15.292Z,1.55
2023-03-29T08:38:15.408Z,0.85
2023-03-29T08:41:15.348Z,1.4
2023-03-29T08:44:15.328Z,2.15
2023-03-29T08:47:15.318Z,1.75
2023-03-29T08:50:15.370Z,1.65
2023-03-29T08:53:15.366Z,1.55
2023-03-29T08:56:15.218Z,2.1
2023-03-29T08:59:15.297Z,0.95
2023-03-29T09:02:15.436Z,1.3
2023-03-29T09:05:15.255Z,1.65
2023-03-29T09:08:15.376Z,2
2023-03-29T09:11:15.347Z,1.35
2023-03-29T09:14:15.384Z,1.9
2023-03-29T09:17:15.266Z,1.6
2023-03-29T09:20:15.329Z,1.9
2023-03-29T09:23:15.349Z,1.7
2023-03-29T09:26:15.336Z,1.85
2023-03-29T09:29:15.343Z,1.65
2023-03-29T09:32:15.342Z,0.95
2023-03-29T09:35:15.354Z,2
2023-03-29T09:38:15.458Z,1.35
2023-03-29T09:41:15.359Z,1.5
2023-03-29T09:44:30.074Z,1.45
2023-03-29T09:47:15.369Z,1.05
2023-03-29T09:50:30.626Z,1.5
2023-03-29T09:53:15.369Z,1.65
2023-03-29T09:56:15.402Z,1
2023-03-29T09:59:15.406Z,1.6
2023-03-29T10:02:15.367Z,0.8
2023-03-29T10:05:15.434Z,2.2
2023-03-29T10:08:16.638Z,1.7
2023-03-29T10:11:15.396Z,0.95
2023-03-29T10:14:15.385Z,1.05
2023-03-29T10:17:15.334Z,1.25
2023-03-29T10:20:15.779Z,1
2023-03-29T10:23:15.680Z,1.5
2023-03-29T10:26:15.330Z,1.75
2023-03-29T10:29:15.327Z,1.2
2023-03-29T10:32:15.355Z,1.65
2023-03-29T10:35:15.429Z,1.55
2023-03-29T10:38:15.412Z,1.55
2023-03-29T10:41:15.466Z,1.9
2023-03-29T10:44:15.545Z,2.05
2023-03-29T10:47:15.444Z,2.15
2023-03-29T10:50:15.428Z,1.55
2023-03-29T10:53:15.415Z,2.2
2023-03-29T10:56:15.504Z,1.65
2023-03-29T10:59:15.485Z,2.8
2023-03-29T11:02:15.589Z,2
2023-03-29T11:05:15.551Z,1.9
2023-03-29T11:08:15.449Z,2.7
2023-03-29T11:11:15.481Z,1.85
2023-03-29T11:14:15.411Z,1.6
2023-03-29T11:17:15.498Z,2.05
2023-03-29T11:20:15.411Z,1.5
2023-03-29T11:23:15.436Z,1.45
2023-03-29T11:26:15.350Z,1.9
2023-03-29T11:29:15.541Z,1.95
2023-03-29T11:32:15.382Z,2.85
2023-03-29T11:35:15.469Z,1.65
2023-03-29T11:38:15.536Z,2.1
2023-03-29T11:41:15.459Z,1.85
2023-03-29T11:44:15.524Z,2.05
2023-03-29T11:47:15.477Z,2.45
2023-03-29T11:50:15.549Z,2.85
2023-03-29T11:53:15.505Z,1.8
2023-03-29T11:56:15.398Z,2.1
2023-03-29T11:59:15.519Z,2.2
2023-03-29T12:02:15.500Z,1.95
2023-03-29T12:05:15.571Z,2.15
2023-03-29T12:08:15.579Z,2.15
2023-03-29T12:11:15.550Z,2.4
2023-03-29T12:14:15.550Z,1.85
2023-03-29T12:17:15.707Z,1.7
2023-03-29T12:20:15.459Z,2.05
2023-03-29T12:23:15.478Z,1.85
2023-03-29T12:26:15.510Z,2.4
2023-03-29T12:29:15.445Z,2.15
2023-03-29T12:32:15.587Z,2.5
2023-03-29T12:35:15.994Z,3.9
2023-03-29T12:38:15.437Z,3.4
2023-03-29T12:41:15.601Z,1.7
2023-03-29T12:44:15.516Z,2.5
2023-03-29T12:47:15.477Z,2.7
2023-03-29T12:50:15.548Z,2.1
2023-03-29T12:53:15.556Z,1.85
2023-03-29T12:56:15.592Z,2
2023-03-29T12:59:15.615Z,2.05
2023-03-29T13:02:15.861Z,2.2
2023-03-29T13:05:15.586Z,2.45
2023-03-29T13:08:15.655Z,2.75
2023-03-29T13:11:15.717Z,2.15
2023-03-29T13:14:15.567Z,1.85
2023-03-29T13:17:20.256Z,2.45
2023-03-29T13:20:15.674Z,1.8
2023-03-29T13:23:18.613Z,1.7
2023-03-29T13:26:15.643Z,1.35
2023-03-29T13:29:15.599Z,1.65
2023-03-29T13:32:15.560Z,1.55
2023-03-29T13:35:15.679Z,1.15
2023-03-29T13:38:15.546Z,2
2023-03-29T13:41:15.501Z,1.4
2023-03-29T13:44:15.732Z,0.75
2023-03-29T13:47:15.643Z,1.45
2023-03-29T13:50:15.661Z,1.45
2023-03-29T13:53:15.523Z,1.65
2023-03-29T13:56:15.687Z,1.4
2023-03-29T13:59:15.536Z,1.1
2023-03-29T14:02:15.631Z,1.25
2023-03-29T14:05:15.697Z,1.05
2023-03-29T14:08:15.578Z,1.15
2023-03-29T14:11:15.521Z,1.8
2023-03-29T14:14:15.597Z,1.85
2023-03-29T14:17:15.524Z,0.9
2023-03-29T14:20:15.535Z,1.05
2023-03-29T14:23:17.391Z,0.85
2023-03-29T14:26:15.677Z,0.95
2023-03-29T14:29:15.686Z,2.2
2023-03-29T14:32:15.874Z,2.3
2023-03-29T14:35:15.573Z,1.5
2023-03-29T14:38:15.618Z,1.3
2023-03-29T14:41:15.658Z,0.95
2023-03-29T14:44:15.576Z,1.05
2023-03-29T14:47:15.748Z,1.25
2023-03-29T14:50:15.557Z,1.45
2023-03-29T14:53:15.541Z,1.1
2023-03-29T14:56:15.749Z,1.3
2023-03-29T14:59:15.617Z,1.55
2023-03-29T15:02:15.775Z,1
2023-03-29T15:05:15.668Z,2.5
2023-03-29T15:08:15.703Z,1.4
2023-03-29T15:11:15.735Z,1.45
2023-03-29T15:14:15.615Z,1.35
2023-03-29T15:17:15.834Z,1.85
2023-03-29T15:20:15.746Z,2.9
2023-03-29T15:23:15.714Z,2.2
2023-03-29T15:26:15.737Z,2.2
2023-03-29T15:29:15.752Z,2.5
2023-03-29T15:32:15.693Z,2.5
2023-03-29T15:35:15.634Z,2.7
2023-03-29T15:38:15.736Z,1.5
2023-03-29T15:41:15.954Z,2.6
2023-03-29T15:44:15.988Z,1.9
2023-03-29T15:47:15.732Z,2.5
2023-03-29T15:50:15.775Z,1.75
2023-03-29T15:53:18.078Z,0.9
2023-03-29T15:56:15.827Z,1.15
2023-03-29T15:59:15.703Z,2.05
2023-03-29T16:02:15.842Z,1.55
2023-03-29T16:05:15.757Z,2.1
2023-03-29T16:08:15.665Z,1.95
2023-03-29T16:11:15.787Z,1.75
2023-03-29T16:14:15.767Z,1.55
2023-03-29T16:17:16.145Z,1.95
2023-03-29T16:20:15.640Z,1.65
2023-03-29T16:23:15.823Z,1.6
2023-03-29T16:26:15.922Z,1.6
2023-03-29T16:29:15.852Z,2.05
2023-03-29T16:32:15.864Z,1.3
2023-03-29T16:35:15.731Z,0.85
2023-03-29T16:38:15.762Z,1
2023-03-29T16:41:15.778Z,0.75
2023-03-29T16:44:15.884Z,1
2023-03-29T16:47:15.693Z,1.35
2023-03-29T16:50:15.990Z,1.1
2023-03-29T16:53:16.036Z,0.55
2023-03-29T16:56:15.789Z,0.55
2023-03-29T16:59:15.745Z,0.55
2023-03-29T17:02:15.798Z,1.05
2023-03-29T17:05:15.767Z,0.45
2023-03-29T17:08:15.803Z,0.7
2023-03-29T17:11:15.857Z,0.55
2023-03-29T17:14:15.774Z,0
2023-03-29T17:17:15.699Z,0.2
2023-03-29T17:20:15.856Z,0.15
2023-03-29T17:23:15.788Z,0.15
2023-03-29T17:26:15.991Z,0
2023-03-29T17:29:15.685Z,0.25
2023-03-29T17:32:15.855Z,0
2023-03-29T17:35:15.857Z,0
2023-03-29T17:38:16.124Z,0.15
2023-03-29T17:41:15.691Z,0.5
2023-03-29T17:44:15.767Z,0.55
2023-03-29T17:47:15.821Z,0.3
2023-03-29T17:50:15.782Z,0.55
2023-03-29T17:53:15.856Z,0.5
2023-03-29T17:56:15.859Z,0.7
2023-03-29T17:59:15.906Z,0.25
2023-03-29T18:02:15.912Z,0.25
2023-03-29T18:05:15.776Z,0.3
2023-03-29T18:08:15.835Z,1.15
2023-03-29T18:11:15.816Z,0.45
2023-03-29T18:14:15.848Z,0.75
2023-03-29T18:17:15.832Z,0.6
2023-03-29T18:20:15.903Z,0.6
2023-03-29T18:23:15.741Z,0.45
2023-03-29T18:26:15.954Z,0.9
2023-03-29T18:29:15.864Z,0.9
2023-03-29T18:32:15.919Z,1
2023-03-29T18:35:15.793Z,1.15
2023-03-29T18:38:15.821Z,1
2023-03-29T18:41:15.916Z,0.6
2023-03-29T18:44:15.801Z,1.15
2023-03-29T18:47:15.922Z,2.15
2023-03-29T18:50:15.837Z,2.05
2023-03-29T18:53:15.888Z,1.95
2023-03-29T18:56:15.909Z,1.35
2023-03-29T18:59:15.850Z,1.15
2023-03-29T19:02:15.832Z,0.95
2023-03-29T19:05:15.897Z,1.15
2023-03-29T19:08:15.857Z,1.3
2023-03-29T19:11:15.963Z,1.6
2023-03-29T19:14:15.987Z,1.6
2023-03-29T19:17:15.971Z,1.7
2023-03-29T19:20:15.957Z,1.85
2023-03-29T19:23:15.895Z,1.25
2023-03-29T19:26:15.915Z,1
2023-03-29T19:29:15.865Z,1.15
2023-03-29T19:32:16.010Z,1.15
2023-03-29T19:35:15.866Z,1.1
2023-03-29T19:38:16.045Z,1.1
2023-03-29T19:41:15.867Z,1.25
2023-03-29T19:44:15.910Z,1.15
2023-03-29T19:47:15.964Z,1.1
2023-03-29T19:50:15.925Z,1.15
2023-03-29T19:53:15.944Z,1.25
2023-03-29T19:56:15.813Z,1.25
2023-03-29T19:59:16.212Z,1.1
2023-03-29T20:02:16.129Z,1.25
2023-03-29T20:05:16.006Z,1.4
2023-03-29T20:08:15.885Z,1.05
2023-03-29T20:11:15.907Z,1.2
2023-03-29T20:14:15.915Z,1.35
2023-03-29T20:17:15.992Z,1.3
2023-03-29T20:20:15.978Z,1.8
2023-03-29T20:23:15.991Z,1.2
2023-03-29T20:26:15.912Z,1.3
2023-03-29T20:29:15.936Z,1.5
2023-03-29T20:32:16.121Z,1.6
2023-03-29T20:35:16.020Z,1.4
2023-03-29T20:38:15.929Z,0.9
2023-03-29T20:41:15.987Z,0.75
2023-03-29T20:44:15.996Z,0.85
2023-03-29T20:47:15.879Z,1.6
2023-03-29T20:50:15.896Z,1.1
2023-03-29T20:53:15.860Z,1.45
2023-03-29T20:56:16.021Z,1.35
2023-03-29T20:59:15.975Z,1.2
2023-03-29T21:02:16.010Z,1.35
2023-03-29T21:05:15.969Z,1.2
2023-03-29T21:08:15.882Z,1.3
2023-03-29T21:11:15.988Z,1.75
2023-03-29T21:14:16.029Z,0.9
2023-03-29T21:17:15.954Z,1.15
2023-03-29T21:20:15.949Z,1
2023-03-29T21:23:16.395Z,1.15
2023-03-29T21:26:16.035Z,1.3
2023-03-29T21:29:15.976Z,1.4
2023-03-29T21:32:16.025Z,1.6
2023-03-29T21:35:16.055Z,1.65
2023-03-29T21:38:15.963Z,0.9
2023-03-29T21:41:15.977Z,1.15
2023-03-29T21:44:16.058Z,1.4
2023-03-29T21:47:15.957Z,0.95
2023-03-29T21:50:16.098Z,1.15
2023-03-29T21:53:16.058Z,1.4
2023-03-29T21:56:15.995Z,1.3
2023-03-29T21:59:16.005Z,1.4
2023-03-29T22:02:16.146Z,1.25
2023-03-29T22:05:16.038Z,1
2023-03-29T22:08:16.073Z,1.05
2023-03-29T22:11:16.247Z,1.3
2023-03-29T22:14:16.013Z,1.1
2023-03-29T22:17:16.004Z,1.1
2023-03-29T22:20:15.997Z,1.05
2023-03-29T22:23:16.066Z,1.45
2023-03-29T22:26:16.110Z,1.05
2023-03-29T22:29:16.017Z,1.65
2023-03-29T22:32:16.184Z,1.55
2023-03-29T22:35:16.111Z,1.3
2023-03-29T22:38:16.037Z,1.65
2023-03-29T22:41:16.077Z,1.6
2023-03-29T22:44:16.140Z,1.25
2023-03-29T22:47:16.146Z,1.1
2023-03-29T22:50:16.046Z,1.15
2023-03-29T22:53:16.093Z,1.35
2023-03-29T22:56:16.043Z,1.05
2023-03-29T22:59:16.081Z,1.25
2023-03-29T23:02:15.975Z,1
2023-03-29T23:05:16.135Z,1.15
2023-03-29T23:08:16.133Z,1.1
2023-03-29T23:11:16.090Z,1.35
2023-03-29T23:14:16.169Z,1.45
2023-03-29T23:17:16.039Z,1.2
2023-03-29T23:20:16.008Z,1.6
2023-03-29T23:23:16.037Z,1.3
2023-03-29T23:26:16.160Z,1.05
2023-03-29T23:29:16.029Z,1.1
2023-03-29T23:32:16.049Z,1
2023-03-29T23:35:16.088Z,1.3
2023-03-29T23:38:16.166Z,1.4
2023-03-29T23:41:16.131Z,1.35
2023-03-29T23:44:16.141Z,1.25
2023-03-29T23:47:16.267Z,1.25
2023-03-29T23:50:16.159Z,1.4
2023-03-29T23:53:16.179Z,1.05
2023-03-29T23:56:16.134Z,1.3
2023-03-29T23:59:16.140Z,1.2
